»·PEaware :: N137AL KSBA-KBUR

N137AL :: KSBA-KBUR

FLIGHT INFORMATION

Flight Status: Arrived
Operator: Privately registered:
United States
More flights under this callsign
Pilot: Aaron K. (32509)
Aircraft: CESSNA 172 SKYHAWK
(C172)
More flights by this aircraft type
Origin: KSBA Santa Barbara Mun
United States
Destination: KBUR Bob Hope-Burbank
United States
More flights between these airports :: More routes between these airports
Route:
File this flight plan on PilotEdge
Remarks:
Altitude:
(Current/Filed)
4,500ft
Speed:
(Current/Filed)
110kts
Departed: 12-Jan-21 01:37 PM
Arrived: 12-Jan-21 02:19 PM
Distance/Time
Traveled:
75nm/0:41
Distance/Time
To Go:
Arrived

Flight Plot

Page will automatically refresh every two minutes.


Map Options




Map Legend


Flown Route
Filed Route
Departure Airport
Arrival Airport
Navaid (VOR, NDB)
Fix

Horizontal Profiles

Position Reports

Time Latitude Longitude Heading Altitude Ground
Speed
12-Jan-21 13:15 34.422664 -119.835593 340 10ft 0kts
12-Jan-21 13:16 34.422664 -119.835593 340 10ft 0kts
12-Jan-21 13:17 34.422664 -119.835593 340 10ft 0kts
12-Jan-21 13:18 34.422664 -119.835593 340 10ft 0kts
12-Jan-21 13:19 34.422664 -119.835593 340 10ft 0kts
12-Jan-21 13:20 34.422664 -119.835593 340 10ft 0kts
12-Jan-21 13:21 34.422664 -119.835593 340 10ft 0kts
12-Jan-21 13:22 34.422664 -119.835593 340 10ft 0kts
12-Jan-21 13:23 34.422664 -119.835593 340 10ft 0kts
12-Jan-21 13:24 34.422664 -119.835593 340 10ft 0kts
12-Jan-21 13:25 34.422664 -119.835593 340 10ft 0kts
12-Jan-21 13:26 34.422664 -119.835593 340 10ft 0kts
12-Jan-21 13:27 34.423012 -119.836879 309 11ft 6kts
12-Jan-21 13:28 34.426619 -119.838210 46 10ft 7kts
12-Jan-21 13:29 34.427015 -119.834686 13 10ft 0kts
12-Jan-21 13:30 34.427015 -119.834687 13 10ft 0kts
12-Jan-21 13:31 34.427018 -119.834686 12 10ft 0kts
12-Jan-21 13:32 34.427018 -119.834686 12 10ft 0kts
12-Jan-21 13:33 34.427018 -119.834686 12 10ft 0kts
12-Jan-21 13:34 34.427018 -119.834686 12 10ft 0kts
12-Jan-21 13:35 34.427018 -119.834686 12 10ft 0kts
12-Jan-21 13:36 34.426876 -119.850890 261 447ft 68kts
12-Jan-21 13:37 34.426701 -119.873755 281 1259ft 71kts
12-Jan-21 13:38 34.433886 -119.866975 99 1984ft 89kts
12-Jan-21 13:39 34.428489 -119.835313 98 2596ft 106kts
12-Jan-21 13:40 34.423690 -119.797822 100 3107ft 116kts
12-Jan-21 13:41 34.417954 -119.758860 100 3612ft 117kts
12-Jan-21 13:43 34.412130 -119.719919 100 4114ft 117kts
12-Jan-21 13:44 34.406357 -119.681287 100 4617ft 116kts
12-Jan-21 13:45 34.400872 -119.644913 100 5109ft 104kts
12-Jan-21 13:46 34.395484 -119.609023 100 5404ft 115kts
12-Jan-21 13:47 34.389369 -119.568667 100 5485ft 128kts
12-Jan-21 13:48 34.382909 -119.526201 100 5491ft 127kts
12-Jan-21 13:49 34.376499 -119.483833 100 5499ft 127kts
12-Jan-21 13:50 34.370088 -119.441514 99 5507ft 128kts
12-Jan-21 13:51 34.363654 -119.399142 99 5516ft 128kts
12-Jan-21 13:52 34.357188 -119.356668 99 5526ft 128kts
12-Jan-21 13:53 34.350702 -119.314166 100 5524ft 128kts
12-Jan-21 13:54 34.344197 -119.271645 100 5520ft 128kts
12-Jan-21 13:55 34.337678 -119.229129 100 5517ft 128kts
12-Jan-21 13:56 34.331154 -119.186697 101 5514ft 128kts
12-Jan-21 13:57 34.324643 -119.144442 101 5511ft 127kts
12-Jan-21 13:57 34.319231 -119.109403 102 5509ft 127kts
12-Jan-21 13:59 34.311675 -119.060593 102 5507ft 126kts
12-Jan-21 14:00 34.305207 -119.018918 102 5506ft 125kts
12-Jan-21 14:01 34.298766 -118.977514 102 5504ft 125kts
12-Jan-21 14:01 34.293365 -118.942994 102 5504ft 125kts
12-Jan-21 14:02 34.286871 -118.901481 102 5504ft 125kts
12-Jan-21 14:03 34.280364 -118.859921 102 5504ft 125kts
12-Jan-21 14:04 34.273840 -118.818365 102 5458ft 129kts
12-Jan-21 14:05 34.266737 -118.773402 102 5068ft 140kts
12-Jan-21 14:06 34.259412 -118.726942 101 4671ft 140kts
12-Jan-21 14:07 34.252194 -118.681506 100 4267ft 127kts
12-Jan-21 14:08 34.245768 -118.640957 99 3866ft 122kts
12-Jan-21 14:09 34.239369 -118.600666 99 3470ft 121kts
12-Jan-21 14:10 34.233238 -118.562136 98 3234ft 112kts
12-Jan-21 14:11 34.227625 -118.526827 98 3173ft 101kts
12-Jan-21 14:12 34.222486 -118.494526 98 3169ft 95kts
12-Jan-21 14:13 34.210190 -118.466393 127 3137ft 98kts
12-Jan-21 14:14 34.197419 -118.438240 80 2280ft 75kts
12-Jan-21 14:15 34.198279 -118.414354 91 1387ft 64kts
12-Jan-21 14:16 34.198213 -118.391755 87 1240ft 67kts
12-Jan-21 14:17 34.197883 -118.368715 90 795ft 64kts
12-Jan-21 14:18 34.198644 -118.360219 3 717ft 0kts
12-Jan-21 14:19 34.198644 -118.360219 3 717ft 0kts
12-Jan-21 14:20 34.199016 -118.358051 27 715ft 10kts
12-Jan-21 14:21 34.200052 -118.358804 263 720ft 0kts
12-Jan-21 14:22 34.200052 -118.358804 263 720ft 0kts
12-Jan-21 14:23 34.200052 -118.358804 263 720ft 0kts
12-Jan-21 14:24 34.200052 -118.358804 263 720ft 0kts
12-Jan-21 14:25 34.200052 -118.358804 263 720ft 0kts
12-Jan-21 14:26 34.200052 -118.358804 263 720ft 0kts
12-Jan-21 14:27 34.200052 -118.358804 263 720ft 0kts
12-Jan-21 14:28 34.200052 -118.358804 263 720ft 0kts
12-Jan-21 14:29 34.200052 -118.358804 263 720ft 0kts
12-Jan-21 14:30 34.200052 -118.358804 263 720ft 0kts
12-Jan-21 14:31 34.200052 -118.358804 263 720ft 0kts
12-Jan-21 14:32 34.200052 -118.358804 263 720ft 0kts

Navigation Log

Ident Type
Flight plan parsing failed, navigation log unavailable